createdAt,value
2023-02-11T00:02:01.998Z,-4.22
2023-02-11T00:05:05.719Z,-4.19
2023-02-11T00:08:08.418Z,-4.17
2023-02-11T00:11:16.764Z,-4.12
2023-02-11T00:14:19.220Z,-4.12
2023-02-11T00:17:22.267Z,-4.17
2023-02-11T00:20:25.603Z,-4.14
2023-02-11T00:23:28.918Z,-4.19
2023-02-11T00:26:35.178Z,-4.20
2023-02-11T00:29:39.685Z,-4.22
2023-02-11T00:32:42.692Z,-4.28
2023-02-11T00:35:45.760Z,-4.31
2023-02-11T00:38:49.959Z,-4.32
2023-02-11T00:41:53.050Z,-4.33
2023-02-11T00:44:56.974Z,-4.33
2023-02-11T00:48:00.031Z,-4.35
2023-02-11T00:51:04.984Z,-4.39
2023-02-11T00:54:08.774Z,-4.38
2023-02-11T00:57:11.708Z,-4.42
2023-02-11T01:00:15.546Z,-4.49
2023-02-11T01:03:18.568Z,-4.52
2023-02-11T01:06:21.596Z,-4.60
2023-02-11T01:09:24.500Z,-4.61
2023-02-11T01:12:27.293Z,-4.60
2023-02-11T01:15:33.729Z,-4.60
2023-02-11T01:18:38.108Z,-4.61
2023-02-11T01:21:42.253Z,-4.66
2023-02-11T01:24:44.991Z,-4.70
2023-02-11T01:27:47.485Z,-4.69
2023-02-11T01:30:50.886Z,-4.77
2023-02-11T01:33:54.262Z,-4.79
2023-02-11T01:37:00.365Z,-4.83
2023-02-11T01:40:07.481Z,-4.84
2023-02-11T01:43:11.589Z,-4.86
2023-02-11T01:46:37.450Z,-4.87
2023-02-11T01:49:48.993Z,-4.88
2023-02-11T01:52:51.474Z,-4.87
2023-02-11T01:56:14.815Z,-4.89
2023-02-11T01:59:23.884Z,-4.87
2023-02-11T02:02:34.721Z,-4.88
2023-02-11T02:05:58.576Z,-4.90
2023-02-11T02:09:16.726Z,-4.93
2023-02-11T02:12:21.195Z,-4.95
2023-02-11T02:15:34.320Z,-4.96
2023-02-11T02:18:53.993Z,-5.00
2023-02-11T02:22:25.127Z,-5.05
2023-02-11T02:25:58.540Z,-5.08
2023-02-11T02:29:31.485Z,-5.10
2023-02-11T02:33:22.412Z,-5.09
2023-02-11T02:36:38.019Z,-5.10
2023-02-11T02:39:41.007Z,-5.15
2023-02-11T02:42:44.631Z,-5.20
2023-02-11T02:45:48.672Z,-5.25
2023-02-11T02:48:54.418Z,-5.24
2023-02-11T02:52:14.565Z,-5.25
2023-02-11T02:55:26.760Z,-5.29
2023-02-11T02:58:36.348Z,-5.27
2023-02-11T03:01:45.849Z,-5.30
2023-02-11T03:04:55.295Z,-5.28
2023-02-11T03:08:16.519Z,-5.31
2023-02-11T03:11:22.270Z,-5.35
2023-02-11T03:14:28.111Z,-5.39
2023-02-11T03:17:35.097Z,-5.37
2023-02-11T03:20:42.138Z,-5.37
2023-02-11T03:23:52.917Z,-5.39
2023-02-11T03:26:59.547Z,-5.48
2023-02-11T03:30:13.491Z,-5.48
2023-02-11T03:33:48.804Z,-5.43
2023-02-11T03:36:57.255Z,-5.36
2023-02-11T03:40:05.810Z,-5.34
2023-02-11T03:43:19.295Z,-5.34
2023-02-11T03:46:31.563Z,-5.34
2023-02-11T03:49:38.726Z,-5.43
2023-02-11T03:52:42.074Z,-5.39
2023-02-11T03:55:47.830Z,-5.35
2023-02-11T03:58:53.038Z,-5.30
2023-02-11T04:01:56.618Z,-5.30
2023-02-11T04:05:00.000Z,-5.28
2023-02-11T04:08:03.880Z,-5.20
2023-02-11T04:11:08.335Z,-5.17
2023-02-11T04:14:11.298Z,-5.16
2023-02-11T04:17:17.551Z,-5.18
2023-02-11T04:20:20.577Z,-5.17
2023-02-11T04:23:23.709Z,-5.20
2023-02-11T04:26:26.435Z,-5.21
2023-02-11T04:29:29.967Z,-5.18
2023-02-11T04:32:33.146Z,-5.19
2023-02-11T04:35:36.401Z,-5.26
2023-02-11T04:38:40.134Z,-5.29
2023-02-11T04:41:43.094Z,-5.34
2023-02-11T04:44:45.900Z,-5.37
2023-02-11T04:47:48.708Z,-5.47
2023-02-11T04:50:51.232Z,-5.50
2023-02-11T04:53:55.000Z,-5.54
2023-02-11T04:56:57.944Z,-5.58
2023-02-11T05:00:03.184Z,-5.57
2023-02-11T05:03:06.005Z,-5.50
2023-02-11T05:06:11.240Z,-5.39
2023-02-11T05:09:14.721Z,-5.34
2023-02-11T05:12:17.751Z,-5.25
2023-02-11T05:15:20.779Z,-5.25
2023-02-11T05:18:24.115Z,-5.32
2023-02-11T05:21:30.078Z,-5.39
2023-02-11T05:24:33.307Z,-5.51
2023-02-11T05:27:36.419Z,-5.59
2023-02-11T05:30:39.434Z,-5.65
2023-02-11T05:33:47.247Z,-5.64
2023-02-11T05:36:50.210Z,-5.82
2023-02-11T05:39:53.690Z,-5.68
2023-02-11T05:42:57.359Z,-5.76
2023-02-11T05:46:00.954Z,-5.72
2023-02-11T05:49:08.088Z,-5.75
2023-02-11T05:52:11.385Z,-5.76
2023-02-11T05:55:14.266Z,-5.80
2023-02-11T05:58:16.918Z,-5.81
2023-02-11T06:01:27.831Z,-5.70
2023-02-11T06:04:33.602Z,-5.64
2023-02-11T06:07:38.230Z,-5.62
2023-02-11T06:10:43.961Z,-5.59
2023-02-11T06:13:47.974Z,-5.55
2023-02-11T06:16:51.976Z,-5.49
2023-02-11T06:19:54.708Z,-5.36
2023-02-11T06:22:57.757Z,-5.28
2023-02-11T06:26:07.880Z,-5.19
2023-02-11T06:29:12.949Z,-5.10
2023-02-11T06:32:39.510Z,-5.01
2023-02-11T06:35:47.878Z,-4.72
2023-02-11T06:38:52.546Z,-3.98
2023-02-11T06:41:55.874Z,-3.45
2023-02-11T06:45:09.527Z,-3.17
2023-02-11T06:48:17.019Z,-2.81
2023-02-11T06:51:21.643Z,-1.86
2023-02-11T06:54:24.910Z,-0.69
2023-02-11T06:57:28.824Z,0.07
2023-02-11T07:00:35.407Z,0.46
2023-02-11T07:03:43.201Z,0.76
2023-02-11T07:06:46.198Z,1.30
2023-02-11T07:09:55.529Z,1.83
2023-02-11T07:13:05.023Z,1.40
2023-02-11T07:16:17.212Z,1.63
2023-02-11T07:19:21.239Z,1.08
2023-02-11T07:22:26.061Z,0.88
2023-02-11T07:25:30.092Z,0.36
2023-02-11T07:28:41.810Z,0.00
2023-02-11T07:31:47.841Z,-0.17
2023-02-11T07:34:52.998Z,-0.11
2023-02-11T07:37:58.108Z,-0.27
2023-02-11T07:41:08.380Z,-0.32
2023-02-11T07:44:18.859Z,-0.33
2023-02-11T07:47:23.011Z,-0.15
2023-02-11T07:50:26.301Z,0.10
2023-02-11T07:53:33.049Z,0.32
2023-02-11T07:56:38.230Z,0.75
2023-02-11T07:59:47.869Z,1.88
2023-02-11T08:02:52.047Z,1.43
2023-02-11T08:05:55.314Z,1.66
2023-02-11T08:09:09.787Z,1.38
2023-02-11T08:12:13.977Z,1.23
2023-02-11T08:15:26.769Z,1.18
2023-02-11T08:18:31.818Z,0.98
2023-02-11T08:21:44.367Z,0.99
2023-02-11T08:24:58.401Z,0.91
2023-02-11T08:28:04.391Z,0.84
2023-02-11T08:31:24.930Z,0.90
2023-02-11T08:34:28.840Z,0.90
2023-02-11T08:37:33.193Z,0.78
2023-02-11T08:40:36.537Z,0.95
2023-02-11T08:43:43.025Z,1.19
2023-02-11T08:46:49.476Z,1.22
2023-02-11T08:49:54.621Z,1.17
2023-02-11T08:53:08.253Z,1.13
2023-02-11T08:56:23.879Z,0.82
2023-02-11T08:59:29.089Z,0.95
2023-02-11T09:02:34.142Z,0.82
2023-02-11T09:05:47.038Z,0.82
2023-02-11T09:08:54.084Z,1.00
2023-02-11T09:12:02.820Z,0.95
2023-02-11T09:15:09.959Z,1.06
2023-02-11T09:18:17.739Z,1.11
2023-02-11T09:21:30.875Z,1.22
2023-02-11T09:24:41.765Z,1.27
2023-02-11T09:27:46.829Z,1.48
2023-02-11T09:30:54.551Z,1.72
2023-02-11T09:34:04.761Z,2.26
2023-02-11T09:37:11.067Z,3.82
2023-02-11T09:40:15.811Z,5.29
2023-02-11T09:43:42.870Z,6.60
2023-02-11T09:47:03.817Z,7.75
2023-02-11T09:50:26.760Z,7.49
2023-02-11T09:53:43.006Z,7.48
2023-02-11T09:56:46.469Z,8.34
2023-02-11T09:59:49.977Z,7.80
2023-02-11T10:03:20.296Z,6.72
2023-02-11T10:06:42.841Z,6.31
2023-02-11T10:09:56.802Z,6.62
2023-02-11T10:13:04.837Z,7.38
2023-02-11T10:16:29.818Z,7.97
2023-02-11T10:20:19.021Z,7.99
2023-02-11T10:23:29.958Z,7.61
2023-02-11T10:26:44.957Z,7.24
2023-02-11T10:30:05.886Z,6.76
2023-02-11T10:33:37.029Z,6.55
2023-02-11T10:36:51.753Z,6.22
2023-02-11T10:39:58.994Z,6.15
2023-02-11T10:43:06.260Z,6.29
2023-02-11T10:46:24.482Z,6.42
2023-02-11T10:49:42.014Z,6.99
2023-02-11T10:53:13.810Z,7.73
2023-02-11T10:56:33.760Z,8.01
2023-02-11T10:59:40.378Z,8.04
2023-02-11T11:02:44.775Z,7.58
2023-02-11T11:06:00.773Z,6.77
2023-02-11T11:09:04.951Z,6.71
2023-02-11T11:12:48.907Z,6.40
2023-02-11T11:16:15.791Z,6.65
2023-02-11T11:19:26.875Z,7.12
2023-02-11T11:22:30.454Z,7.33
2023-02-11T11:25:37.779Z,7.33
2023-02-11T11:29:06.979Z,7.20
2023-02-11T11:32:32.928Z,7.05
2023-02-11T11:35:36.318Z,6.85
2023-02-11T11:38:58.814Z,6.87
2023-02-11T11:42:08.036Z,6.89
2023-02-11T11:45:25.771Z,6.91
2023-02-11T11:48:50.900Z,7.23
2023-02-11T11:52:27.841Z,7.09
2023-02-11T11:55:42.576Z,7.07
2023-02-11T11:58:54.808Z,6.93
2023-02-11T12:02:35.846Z,6.91
2023-02-11T12:06:03.242Z,7.07
2023-02-11T12:09:24.774Z,6.94
2023-02-11T12:12:32.772Z,6.93
2023-02-11T12:15:45.054Z,6.84
2023-02-11T12:19:33.425Z,6.92
2023-02-11T12:23:13.876Z,6.93
2023-02-11T12:26:23.388Z,7.14
2023-02-11T12:30:01.953Z,7.38
2023-02-11T12:33:34.043Z,7.52
2023-02-11T12:36:55.913Z,7.39
2023-02-11T12:40:35.025Z,7.38
2023-02-11T12:43:53.436Z,7.46
2023-02-11T12:47:40.165Z,7.45
2023-02-11T12:51:16.750Z,7.51
2023-02-11T12:54:47.888Z,7.59
2023-02-11T12:58:00.862Z,7.45
2023-02-11T13:01:23.892Z,7.59
2023-02-11T13:04:37.782Z,7.54
2023-02-11T13:07:50.840Z,7.60
2023-02-11T13:11:11.030Z,7.57
2023-02-11T13:14:38.917Z,7.50
2023-02-11T13:18:01.141Z,7.50
2023-02-11T13:21:17.966Z,7.36
2023-02-11T13:24:37.152Z,7.18
2023-02-11T13:27:44.775Z,6.99
2023-02-11T13:30:52.555Z,6.91
2023-02-11T13:33:56.527Z,6.87
2023-02-11T13:37:07.830Z,6.82
2023-02-11T13:40:25.300Z,6.85
2023-02-11T13:43:30.348Z,6.96
2023-02-11T13:46:56.756Z,6.87
2023-02-11T13:50:05.670Z,6.94
2023-02-11T13:53:18.685Z,6.86
2023-02-11T13:56:30.276Z,6.81
2023-02-11T13:59:42.817Z,6.79
2023-02-11T14:03:29.891Z,6.78
2023-02-11T14:07:07.473Z,6.78
2023-02-11T14:10:49.024Z,6.81
2023-02-11T14:14:22.772Z,6.78
2023-02-11T14:17:33.243Z,6.72
2023-02-11T14:20:46.870Z,6.63
2023-02-11T14:24:20.858Z,6.60
2023-02-11T14:28:08.923Z,6.56
2023-02-11T14:31:59.815Z,6.50
2023-02-11T14:35:29.938Z,6.37
2023-02-11T14:38:55.872Z,6.48
2023-02-11T14:42:08.217Z,6.48
2023-02-11T14:45:21.553Z,6.52
2023-02-11T14:48:35.139Z,6.52
2023-02-11T14:51:41.449Z,6.52
2023-02-11T14:54:52.892Z,6.47
2023-02-11T14:58:21.415Z,6.43
2023-02-11T15:01:37.874Z,6.33
2023-02-11T15:04:51.808Z,6.27
2023-02-11T15:08:10.773Z,6.20
2023-02-11T15:11:25.561Z,6.17
2023-02-11T15:14:39.728Z,6.08
2023-02-11T15:17:46.846Z,5.95
2023-02-11T15:20:55.778Z,5.84
2023-02-11T15:24:03.213Z,5.69
2023-02-11T15:27:19.729Z,5.50
2023-02-11T15:30:36.303Z,5.31
2023-02-11T15:33:46.967Z,5.24
2023-02-11T15:36:50.396Z,5.22
2023-02-11T15:40:02.899Z,5.19
2023-02-11T15:43:11.169Z,5.21
2023-02-11T15:46:23.973Z,5.19
2023-02-11T15:49:33.541Z,5.14
2023-02-11T15:52:44.676Z,5.12
2023-02-11T15:56:17.165Z,5.09
2023-02-11T15:59:40.225Z,5.02
2023-02-11T16:02:47.272Z,4.92
2023-02-11T16:06:00.830Z,4.82
2023-02-11T16:09:13.852Z,4.74
2023-02-11T16:12:29.807Z,4.62
2023-02-11T16:15:38.804Z,4.51
2023-02-11T16:19:04.273Z,4.45
2023-02-11T16:22:13.870Z,4.35
2023-02-11T16:25:23.859Z,4.24
2023-02-11T16:28:28.174Z,4.10
2023-02-11T16:31:51.719Z,3.98
2023-02-11T16:35:02.851Z,3.88
2023-02-11T16:38:06.657Z,3.76
2023-02-11T16:41:19.566Z,3.66
2023-02-11T16:44:30.519Z,3.54
2023-02-11T16:47:37.815Z,3.47
2023-02-11T16:50:51.432Z,3.42
2023-02-11T16:54:02.691Z,3.42
2023-02-11T16:57:18.809Z,3.49
2023-02-11T17:00:30.186Z,3.54
2023-02-11T17:03:40.124Z,3.56
2023-02-11T17:06:55.967Z,3.60
2023-02-11T17:10:03.095Z,3.61
2023-02-11T17:13:08.713Z,3.60
2023-02-11T17:16:19.075Z,3.61
2023-02-11T17:19:27.757Z,3.62
2023-02-11T17:26:16.978Z,3.65
2023-02-11T17:29:25.134Z,3.65
2023-02-11T17:32:29.940Z,3.63
2023-02-11T17:35:47.707Z,3.61
2023-02-11T17:39:02.166Z,3.60
2023-02-11T17:42:23.843Z,3.59
2023-02-11T17:45:35.005Z,3.56
2023-02-11T17:48:53.957Z,3.49
2023-02-11T17:51:58.485Z,3.48
2023-02-11T17:55:16.684Z,3.38
2023-02-11T17:58:28.777Z,3.33
2023-02-11T18:01:37.169Z,3.26
2023-02-11T18:04:46.150Z,3.23
2023-02-11T18:08:02.839Z,3.21
2023-02-11T18:11:13.841Z,3.18
2023-02-11T18:14:23.140Z,3.15
2023-02-11T18:17:41.101Z,3.20
2023-02-11T18:20:59.874Z,3.17
2023-02-11T18:24:18.827Z,3.08
2023-02-11T18:27:40.752Z,3.05
2023-02-11T18:30:59.784Z,3.03
2023-02-11T18:34:11.839Z,3.03
2023-02-11T18:37:33.784Z,3.03
2023-02-11T18:40:43.727Z,2.95
2023-02-11T18:43:57.077Z,3.13
2023-02-11T18:47:07.652Z,3.02
2023-02-11T18:50:25.746Z,3.16
2023-02-11T18:53:33.070Z,3.14
2023-02-11T18:56:52.690Z,3.11
2023-02-11T19:00:04.873Z,3.05
2023-02-11T19:03:16.941Z,3.00
2023-02-11T19:06:30.767Z,3.00
2023-02-11T19:09:36.978Z,2.98
2023-02-11T19:12:47.775Z,2.97
2023-02-11T19:16:14.943Z,2.89
2023-02-11T19:19:31.658Z,2.86
2023-02-11T19:22:47.827Z,2.82
2023-02-11T19:25:51.839Z,2.83
2023-02-11T19:29:05.791Z,2.92
2023-02-11T19:32:22.650Z,2.96
2023-02-11T19:35:35.788Z,3.03
2023-02-11T19:38:45.979Z,3.08
2023-02-11T19:41:54.817Z,3.21
2023-02-11T19:45:13.685Z,3.36
2023-02-11T19:48:20.027Z,3.49
2023-02-11T19:51:24.340Z,3.64
2023-02-11T19:54:38.968Z,3.73
2023-02-11T19:57:48.679Z,3.82
2023-02-11T20:00:54.055Z,3.87
2023-02-11T20:03:59.760Z,3.93
2023-02-11T20:07:04.511Z,3.96
2023-02-11T20:10:08.868Z,3.94
2023-02-11T20:13:12.163Z,3.92
2023-02-11T20:16:47.391Z,3.92
2023-02-11T20:19:53.856Z,3.88
2023-02-11T20:22:58.714Z,3.83
2023-02-11T20:26:09.975Z,3.77
2023-02-11T20:29:15.358Z,3.86
2023-02-11T20:32:21.858Z,3.82
2023-02-11T20:35:25.571Z,3.87
2023-02-11T20:38:29.754Z,3.85
2023-02-11T20:41:44.719Z,3.87
2023-02-11T20:44:54.091Z,3.91
2023-02-11T20:48:07.689Z,3.95
2023-02-11T20:51:14.945Z,3.96
2023-02-11T20:54:26.868Z,3.96
2023-02-11T20:57:33.768Z,3.98
2023-02-11T21:00:39.893Z,3.95
2023-02-11T21:03:52.496Z,3.99
2023-02-11T21:07:08.785Z,4.00
2023-02-11T21:10:15.941Z,3.97
2023-02-11T21:13:27.933Z,3.94
2023-02-11T21:16:35.873Z,3.90
2023-02-11T21:19:47.690Z,3.92
2023-02-11T21:23:01.894Z,3.90
2023-02-11T21:26:11.828Z,3.86
2023-02-11T21:29:19.750Z,3.90
2023-02-11T21:32:28.222Z,3.90
2023-02-11T21:35:42.526Z,3.98
2023-02-11T21:38:53.001Z,3.91
2023-02-11T21:42:09.788Z,3.93
2023-02-11T21:45:17.352Z,3.88
2023-02-11T21:48:24.007Z,3.91
2023-02-11T21:51:29.997Z,3.94
2023-02-11T21:54:34.611Z,3.92
2023-02-11T21:57:39.573Z,3.88
2023-02-11T22:00:42.898Z,3.86
2023-02-11T22:03:54.745Z,3.84
2023-02-11T22:07:01.510Z,3.82
2023-02-11T22:10:13.075Z,3.85
2023-02-11T22:13:20.835Z,3.81
2023-02-11T22:16:25.373Z,3.78
2023-02-11T22:19:33.699Z,3.77
2023-02-11T22:22:38.782Z,3.63
2023-02-11T22:25:41.908Z,3.60
2023-02-11T22:28:45.936Z,3.57
2023-02-11T22:31:49.403Z,3.58
2023-02-11T22:34:53.515Z,3.69
2023-02-11T22:37:59.716Z,3.76
2023-02-11T22:41:13.764Z,3.65
2023-02-11T22:44:26.952Z,3.62
2023-02-11T22:47:32.162Z,3.56
2023-02-11T22:50:36.312Z,3.55
2023-02-11T22:53:40.651Z,3.48
2023-02-11T22:56:51.331Z,3.46
2023-02-11T22:59:55.555Z,3.49
2023-02-11T23:02:59.202Z,3.39
2023-02-11T23:06:03.790Z,3.30
2023-02-11T23:09:09.592Z,3.27
2023-02-11T23:12:15.563Z,3.26
2023-02-11T23:15:18.726Z,3.31
2023-02-11T23:18:22.099Z,3.45
2023-02-11T23:21:27.831Z,3.46
2023-02-11T23:24:31.972Z,3.44
2023-02-11T23:27:34.789Z,3.41
2023-02-11T23:30:38.495Z,3.44
2023-02-11T23:33:42.180Z,3.41
2023-02-11T23:36:45.233Z,3.47
2023-02-11T23:39:50.065Z,3.46
2023-02-11T23:42:55.827Z,3.47
2023-02-11T23:46:00.712Z,3.46
2023-02-11T23:49:10.151Z,3.51
2023-02-11T23:52:13.136Z,3.56
2023-02-11T23:55:16.404Z,3.50
2023-02-11T23:58:19.216Z,3.54
